Time;durP1;ratioP1;P1;durP2;ratioP2;P2;SDS_P1;SDS_P2;PMS_P1;PMS_P2;Temp;Humidity;BMP_temperature;BMP_pressure;BME280_temperature;BME280_humidity;BME280_pressure;Samples;Min_cycle;Max_cycle;Signal;HPM_P1;HPM_P2
2023/05/14 00:01:16;;;;;;;2.50;1.90;;;21.20;38.30;;;;;;5055048;28;20029;-71
2023/05/14 00:03:42;;;;;;;2.50;2.00;;;21.30;39.00;;;;;;5055184;28;20387;-72
2023/05/14 00:06:09;;;;;;;2.05;1.60;;;21.30;38.30;;;;;;5055160;28;20031;-73
2023/05/14 00:08:35;;;;;;;1.70;1.60;;;21.20;38.30;;;;;;5054851;28;20031;-72
2023/05/14 00:11:01;;;;;;;1.73;1.63;;;21.20;38.30;;;;;;5054436;28;20020;-72
2023/05/14 00:13:27;;;;;;;2.38;1.85;;;21.30;38.30;;;;;;5053580;28;20075;-73
2023/05/14 00:15:52;;;;;;;1.60;1.50;;;21.30;38.90;;;;;;5054741;28;20032;-72
2023/05/14 00:18:18;;;;;;;1.80;1.70;;;21.30;38.30;;;;;;5054924;28;20498;-72
2023/05/14 00:20:43;;;;;;;2.50;1.42;;;21.30;38.20;;;;;;5054535;28;20025;-73
2023/05/14 00:23:09;;;;;;;1.58;1.48;;;21.30;38.10;;;;;;5054537;28;20021;-72
2023/05/14 00:25:35;;;;;;;1.45;1.35;;;21.30;38.10;;;;;;5054629;28;20113;-71
2023/05/14 00:28:01;;;;;;;1.58;1.48;;;21.30;38.10;;;;;;5054814;28;20029;-73
2023/05/14 00:30:27;;;;;;;1.70;1.60;;;21.30;38.10;;;;;;5054025;28;20033;-72
2023/05/14 00:32:53;;;;;;;1.60;1.50;;;21.30;38.10;;;;;;5054257;28;20089;-72
2023/05/14 00:35:20;;;;;;;1.67;1.58;;;21.20;38.00;;;;;;5054642;28;20111;-71
2023/05/14 00:37:45;;;;;;;1.42;1.30;;;21.30;38.10;;;;;;5053461;28;20040;-72
2023/05/14 00:40:12;;;;;;;1.83;1.50;;;21.20;38.00;;;;;;5053837;28;20471;-72
2023/05/14 00:42:39;;;;;;;1.92;1.67;;;21.20;38.00;;;;;;5054279;28;20025;-72
2023/05/14 00:45:05;;;;;;;1.52;1.42;;;21.20;38.00;;;;;;5053652;28;20170;-72
2023/05/14 00:47:33;;;;;;;1.90;1.48;;;21.20;38.10;;;;;;5054299;28;20037;-72
2023/05/14 00:49:59;;;;;;;1.40;1.30;;;21.10;38.00;;;;;;5054398;28;20021;-72
2023/05/14 00:52:25;;;;;;;1.42;1.33;;;21.10;38.00;;;;;;5052642;28;20021;-72
2023/05/14 00:54:51;;;;;;;2.00;1.50;;;21.10;38.00;;;;;;5053951;28;20463;-73
2023/05/14 00:57:17;;;;;;;2.20;1.52;;;21.10;38.10;;;;;;5053663;28;20038;-72
2023/05/14 00:59:43;;;;;;;1.50;1.40;;;21.00;38.10;;;;;;5053794;28;20036;-72
2023/05/14 01:02:09;;;;;;;2.55;1.42;;;21.00;38.20;;;;;;5052447;28;20079;-72
2023/05/14 01:04:36;;;;;;;1.80;1.38;;;21.10;38.20;;;;;;5052929;28;20426;-72
2023/05/14 01:07:23;;;;;;;1.85;1.38;;;21.10;38.30;;;;;;5053719;28;20074;-73
2023/05/14 01:09:56;;;;;;;1.80;1.50;;;21.10;38.20;;;;;;5053804;28;20098;-73
2023/05/14 01:12:29;;;;;;;1.55;1.30;;;21.00;38.10;;;;;;5053378;28;20025;-72
2023/05/14 01:15:01;;;;;;;1.80;1.70;;;21.00;38.20;;;;;;5053659;28;20021;-73
2023/05/14 01:17:30;;;;;;;2.72;1.70;;;21.00;38.20;;;;;;5052380;28;20063;-72
2023/05/14 01:19:57;;;;;;;1.70;1.60;;;21.00;38.20;;;;;;5053776;28;20043;-73
2023/05/14 01:22:22;;;;;;;3.80;1.63;;;21.00;38.20;;;;;;5053040;28;20082;-73
2023/05/14 01:24:48;;;;;;;2.10;1.60;;;21.00;38.30;;;;;;5053124;28;20033;-72
2023/05/14 01:27:17;;;;;;;2.35;1.52;;;21.00;38.40;;;;;;5054012;28;20029;-73
2023/05/14 01:30:14;;;;;;;1.65;1.55;;;20.90;38.40;;;;;;5053521;28;20399;-73
2023/05/14 01:32:41;;;;;;;2.33;1.50;;;20.90;38.40;;;;;;5051608;28;20040;-73
2023/05/14 01:35:08;;;;;;;1.77;1.67;;;20.90;38.40;;;;;;5052984;28;20055;-73
2023/05/14 01:37:34;;;;;;;2.20;2.00;;;20.80;38.40;;;;;;5053401;28;20021;-73
2023/05/14 01:40:01;;;;;;;2.08;1.70;;;20.80;38.50;;;;;;5053423;28;20021;-73
2023/05/14 01:42:28;;;;;;;2.22;1.95;;;20.80;38.60;;;;;;5053117;28;20070;-73
2023/05/14 01:44:54;;;;;;;2.10;1.77;;;20.80;38.80;;;;;;5051385;28;20032;-72
2023/05/14 01:47:20;;;;;;;1.73;1.63;;;20.70;38.80;;;;;;5051849;28;20033;-73
2023/05/14 01:49:45;;;;;;;1.92;1.73;;;20.70;38.90;;;;;;5052722;28;20033;-73
2023/05/14 01:52:11;;;;;;;2.10;1.90;;;20.70;39.00;;;;;;5053095;28;20029;-72
2023/05/14 01:54:37;;;;;;;2.15;1.90;;;20.60;39.00;;;;;;5051738;28;20032;-73
2023/05/14 01:57:02;;;;;;;4.20;2.00;;;20.70;39.10;;;;;;5052484;28;20025;-71
2023/05/14 01:59:28;;;;;;;2.20;2.00;;;20.60;39.20;;;;;;5052849;28;20112;-73
2023/05/14 02:01:54;;;;;;;1.92;1.73;;;20.60;39.20;;;;;;5053094;28;20025;-73
2023/05/14 02:04:20;;;;;;;3.75;2.00;;;20.60;39.20;;;;;;5052659;28;20029;-72
2023/05/14 02:06:45;;;;;;;3.42;2.25;;;20.70;39.30;;;;;;5053268;28;20032;-73
2023/05/14 02:09:11;;;;;;;2.40;2.20;;;20.70;39.30;;;;;;5052540;28;20037;-72
2023/05/14 02:11:37;;;;;;;4.43;3.08;;;20.70;39.40;;;;;;5052980;28;20025;-73
2023/05/14 02:14:02;;;;;;;4.07;3.20;;;20.70;39.50;;;;;;5052596;28;20460;-72
2023/05/14 02:16:28;;;;;;;5.57;3.30;;;20.70;39.60;;;;;;5052777;28;20104;-73
2023/05/14 02:18:54;;;;;;;5.30;3.40;;;20.70;39.70;;;;;;5052320;28;20471;-74
2023/05/14 02:21:19;;;;;;;6.40;4.22;;;20.70;39.90;;;;;;5052617;28;20465;-73
2023/05/14 02:23:47;;;;;;;5.85;3.92;;;20.60;40.00;;;;;;5052387;28;20056;-73
2023/05/14 02:26:12;;;;;;;6.43;4.38;;;20.50;40.10;;;;;;5052702;28;20119;-72
2023/05/14 02:28:38;;;;;;;7.18;4.70;;;20.50;40.30;;;;;;5053030;28;20112;-73
2023/05/14 02:31:04;;;;;;;8.20;5.05;;;20.40;40.30;;;;;;5051120;28;20053;-74
2023/05/14 02:33:29;;;;;;;11.68;5.30;;;20.40;40.50;;;;;;5052277;28;20383;-72
2023/05/14 02:35:55;;;;;;;7.57;4.70;;;20.40;40.60;;;;;;5052521;28;20082;-73
2023/05/14 02:38:21;;;;;;;7.10;4.50;;;20.30;40.70;;;;;;5052705;28;20033;-73
2023/05/14 02:40:47;;;;;;;6.22;4.22;;;20.30;40.60;;;;;;5052511;28;20052;-72
2023/05/14 02:43:13;;;;;;;5.65;3.80;;;20.20;40.60;;;;;;5052529;28;20029;-74
2023/05/14 02:45:38;;;;;;;3.97;2.95;;;20.20;40.60;;;;;;5052028;28;20028;-73
2023/05/14 02:48:04;;;;;;;4.95;3.38;;;20.20;40.60;;;;;;5052212;28;20065;-72
2023/05/14 02:50:30;;;;;;;5.25;3.15;;;20.20;40.50;;;;;;5052344;28;20379;-73
2023/05/14 02:52:55;;;;;;;3.63;3.15;;;20.30;40.60;;;;;;5052510;28;20029;-71
2023/05/14 02:55:21;;;;;;;4.65;2.70;;;20.30;40.60;;;;;;5052113;28;20025;-71
2023/05/14 02:57:47;;;;;;;3.88;3.03;;;20.30;40.60;;;;;;5052273;28;20037;-72
2023/05/14 03:00:13;;;;;;;3.45;2.70;;;20.30;40.60;;;;;;5052550;28;20119;-73
2023/05/14 03:02:38;;;;;;;2.83;2.53;;;20.30;40.60;;;;;;5055954;28;20455;-73
2023/05/14 03:05:04;;;;;;;4.53;2.75;;;20.40;40.80;;;;;;5055902;28;20029;-72
2023/05/14 03:07:30;;;;;;;4.38;2.45;;;20.30;40.70;;;;;;5056246;28;20521;-73
2023/05/14 03:09:55;;;;;;;3.78;2.58;;;20.30;40.80;;;;;;5056177;28;20025;-73
2023/05/14 03:12:21;;;;;;;3.45;2.38;;;20.30;40.80;;;;;;5055918;28;20132;-73
2023/05/14 03:14:47;;;;;;;4.70;2.47;;;20.30;40.80;;;;;;5054575;28;20430;-72
2023/05/14 03:17:12;;;;;;;3.30;2.50;;;20.30;40.80;;;;;;5055312;28;20391;-73
2023/05/14 03:19:38;;;;;;;2.67;2.40;;;20.30;40.80;;;;;;5056123;28;20056;-73
2023/05/14 03:22:04;;;;;;;2.60;2.40;;;20.30;40.80;;;;;;5056073;28;20025;-73
2023/05/14 03:24:30;;;;;;;2.60;2.20;;;20.30;40.80;;;;;;5054379;28;20128;-73
2023/05/14 03:26:56;;;;;;;3.17;2.30;;;20.30;40.80;;;;;;5055731;28;20024;-73
2023/05/14 03:29:21;;;;;;;3.70;2.50;;;20.40;40.90;;;;;;5055749;28;20036;-73
2023/05/14 03:31:47;;;;;;;2.88;2.35;;;20.40;40.80;;;;;;5055642;28;20056;-73
2023/05/14 03:34:13;;;;;;;3.28;2.30;;;20.40;40.80;;;;;;5054618;28;20029;-73
2023/05/14 03:36:38;;;;;;;2.50;2.30;;;20.40;40.80;;;;;;5055188;28;20108;-73
2023/05/14 03:39:08;;;;;;;2.88;2.22;;;20.50;40.80;;;;;;5055373;28;20078;-73
2023/05/14 03:41:34;;;;;;;2.70;2.25;;;20.50;40.70;;;;;;5055138;28;20119;-73
2023/05/14 03:44:00;;;;;;;2.97;2.00;;;20.50;40.70;;;;;;5055530;28;20126;-73
2023/05/14 03:46:26;;;;;;;4.25;2.10;;;20.50;40.70;;;;;;5055069;28;20083;-73
2023/05/14 03:48:51;;;;;;;3.42;2.40;;;20.60;40.80;;;;;;5055111;28;20052;-73
2023/05/14 03:51:17;;;;;;;2.45;2.20;;;20.60;40.70;;;;;;5055388;28;20025;-73
2023/05/14 03:53:43;;;;;;;2.30;2.10;;;20.60;40.70;;;;;;5055328;28;20663;-73
2023/05/14 03:56:09;;;;;;;2.75;2.20;;;20.60;40.70;;;;;;5055392;28;20463;-74
2023/05/14 03:58:34;;;;;;;2.97;2.30;;;20.60;40.60;;;;;;5055063;28;20086;-72
2023/05/14 04:01:00;;;;;;;2.47;2.28;;;20.60;40.60;;;;;;5054670;28;20060;-73
2023/05/14 04:03:25;;;;;;;2.30;2.10;;;20.60;40.60;;;;;;5055086;28;20025;-73
2023/05/14 04:05:51;;;;;;;3.15;2.40;;;20.70;40.60;;;;;;5055161;28;20021;-72
2023/05/14 04:08:17;;;;;;;3.40;2.55;;;20.70;40.60;;;;;;5054787;28;20064;-73
2023/05/14 04:10:42;;;;;;;2.30;2.08;;;20.80;40.70;;;;;;5055034;28;20091;-73
2023/05/14 04:13:08;;;;;;;2.25;2.05;;;20.80;40.60;;;;;;5054320;28;20056;-73
2023/05/14 04:15:38;;;;;;;2.22;2.03;;;20.80;40.60;;;;;;5054581;28;20025;-74
2023/05/14 04:18:04;;;;;;;2.38;2.17;;;20.80;40.60;;;;;;5053497;28;20060;-72
2023/05/14 04:20:29;;;;;;;2.20;2.00;;;20.90;40.60;;;;;;5053747;28;20067;-74
2023/05/14 04:22:55;;;;;;;4.35;2.17;;;20.90;40.60;;;;;;5054618;28;20443;-73
2023/05/14 04:25:21;;;;;;;2.50;2.20;;;20.90;40.60;;;;;;5054559;28;20385;-73
2023/05/14 04:27:46;;;;;;;2.63;2.10;;;21.00;40.60;;;;;;5054321;28;20037;-73
2023/05/14 04:30:12;;;;;;;2.33;2.13;;;21.00;40.60;;;;;;5054344;28;20499;-73
2023/05/14 04:32:38;;;;;;;2.63;2.10;;;21.00;40.60;;;;;;5054807;28;20113;-73
2023/05/14 04:35:04;;;;;;;2.80;2.10;;;21.00;40.50;;;;;;5054412;28;20443;-74
2023/05/14 04:37:30;;;;;;;2.17;1.98;;;21.00;40.50;;;;;;5054228;28;20033;-73
2023/05/14 04:39:56;;;;;;;2.53;2.00;;;21.10;40.60;;;;;;5053831;28;20070;-73
2023/05/14 04:42:22;;;;;;;2.50;1.92;;;21.10;40.60;;;;;;5054256;28;20477;-74
2023/05/14 04:44:47;;;;;;;2.45;2.10;;;21.20;40.60;;;;;;5053994;28;20414;-71
2023/05/14 04:47:13;;;;;;;2.50;2.15;;;21.20;40.60;;;;;;5054364;28;20032;-73
2023/05/14 04:49:39;;;;;;;1.88;1.70;;;21.20;40.60;;;;;;5053855;28;20060;-73
2023/05/14 04:52:05;;;;;;;2.17;1.90;;;21.20;40.60;;;;;;5054333;28;20111;-73
2023/05/14 04:54:31;;;;;;;2.45;1.90;;;21.20;40.60;;;;;;5054076;28;20024;-74
2023/05/14 04:56:56;;;;;;;2.45;2.10;;;21.20;40.70;;;;;;5053740;28;20542;-73
2023/05/14 04:59:22;;;;;;;2.03;1.83;;;21.20;40.80;;;;;;5052674;28;20070;-73
2023/05/14 05:01:48;;;;;;;1.73;1.63;;;21.20;40.80;;;;;;5053772;28;20036;-74
2023/05/14 05:04:13;;;;;;;2.00;1.80;;;21.20;40.90;;;;;;5054084;28;20031;-73
2023/05/14 05:06:39;;;;;;;2.03;1.83;;;21.20;40.90;;;;;;5054228;28;20037;-73
2023/05/14 05:09:05;;;;;;;2.03;1.80;;;21.20;41.00;;;;;;5053319;28;20463;-74
2023/05/14 05:11:30;;;;;;;2.20;1.98;;;21.20;41.00;;;;;;5053819;28;20387;-73
2023/05/14 05:13:56;;;;;;;1.70;1.60;;;21.20;40.90;;;;;;5053282;28;20068;-74
2023/05/14 05:16:22;;;;;;;3.00;1.95;;;21.30;40.90;;;;;;5053891;28;20037;-73
2023/05/14 05:18:47;;;;;;;2.33;1.80;;;21.20;40.80;;;;;;5053391;28;20033;-72
2023/05/14 05:21:13;;;;;;;2.25;1.83;;;21.20;40.80;;;;;;5053355;28;20067;-74
2023/05/14 05:23:38;;;;;;;1.58;1.48;;;21.30;40.80;;;;;;5053014;28;20101;-73
2023/05/14 05:26:04;;;;;;;1.90;1.73;;;21.30;40.80;;;;;;5053169;28;20467;-73
2023/05/14 05:28:30;;;;;;;1.65;1.55;;;21.30;40.70;;;;;;5052098;28;20083;-73
2023/05/14 05:30:55;;;;;;;2.13;1.60;;;21.30;40.60;;;;;;5052977;28;20053;-73
2023/05/14 05:33:21;;;;;;;2.10;1.90;;;21.40;40.60;;;;;;5053357;28;20059;-73
2023/05/14 05:35:48;;;;;;;2.47;1.92;;;21.40;40.60;;;;;;5053125;28;20111;-72
2023/05/14 05:38:15;;;;;;;2.28;1.90;;;21.40;40.60;;;;;;5053029;28;20460;-73
2023/05/14 05:40:40;;;;;;;2.75;1.75;;;21.50;40.60;;;;;;5052618;28;20056;-73
2023/05/14 05:43:06;;;;;;;2.00;1.80;;;21.50;40.50;;;;;;5052649;28;20218;-73
2023/05/14 05:45:31;;;;;;;2.20;1.70;;;21.60;40.50;;;;;;5053148;28;20064;-73
2023/05/14 05:47:57;;;;;;;2.10;1.90;;;21.60;40.50;;;;;;5053098;28;20486;-73
2023/05/14 05:50:23;;;;;;;2.88;2.00;;;21.70;40.40;;;;;;5052494;28;20399;-73
2023/05/14 05:52:49;;;;;;;2.63;1.95;;;21.70;40.30;;;;;;5052886;28;20033;-73
2023/05/14 05:55:14;;;;;;;1.55;1.45;;;21.80;40.30;;;;;;5051798;28;20033;-73
2023/05/14 05:57:40;;;;;;;2.50;1.90;;;21.90;40.30;;;;;;5052693;28;20104;-73
2023/05/14 06:00:11;;;;;;;1.80;1.60;;;21.90;40.20;;;;;;5053030;28;20056;-73
2023/05/14 06:02:38;;;;;;;2.05;1.75;;;21.90;40.10;;;;;;5052574;28;20471;-72
2023/05/14 06:05:05;;;;;;;1.70;1.60;;;21.90;40.00;;;;;;5052767;28;20456;-73
2023/05/14 06:07:30;;;;;;;3.28;1.80;;;22.00;39.90;;;;;;5052779;28;20402;-73
2023/05/14 06:09:56;;;;;;;1.92;1.80;;;22.10;39.90;;;;;;5052716;28;20021;-73
2023/05/14 06:12:21;;;;;;;2.00;1.88;;;22.10;39.80;;;;;;5052717;28;20025;-72
2023/05/14 06:14:47;;;;;;;2.45;1.63;;;22.10;39.80;;;;;;5052440;28;20031;-73
2023/05/14 06:17:13;;;;;;;3.00;1.90;;;22.10;39.70;;;;;;5052721;28;20029;-73
2023/05/14 06:19:38;;;;;;;2.20;2.00;;;22.20;39.70;;;;;;5052808;28;20090;-73
2023/05/14 06:22:04;;;;;;;1.83;1.70;;;22.20;39.60;;;;;;5052522;28;20395;-72
2023/05/14 06:24:29;;;;;;;2.20;1.90;;;22.20;39.50;;;;;;5052583;28;20025;-73
2023/05/14 06:26:55;;;;;;;2.53;1.90;;;22.30;39.50;;;;;;5052097;28;20107;-72
2023/05/14 06:29:21;;;;;;;3.53;1.80;;;22.30;39.40;;;;;;5053026;28;20374;-73
2023/05/14 06:31:47;;;;;;;1.83;1.60;;;22.30;39.30;;;;;;5052370;28;20061;-74
2023/05/14 06:34:12;;;;;;;1.88;1.60;;;22.30;39.30;;;;;;5052594;28;20411;-72
2023/05/14 06:36:39;;;;;;;1.73;1.60;;;22.30;39.30;;;;;;5055434;28;20025;-72
2023/05/14 06:39:04;;;;;;;2.33;1.65;;;22.30;39.20;;;;;;5055943;28;20051;-74
2023/05/14 06:41:30;;;;;;;2.50;1.88;;;22.30;39.20;;;;;;5034794;28;20120;-72
2023/05/14 06:43:56;;;;;;;2.10;1.85;;;22.40;39.30;;;;;;5036320;28;20028;-73
2023/05/14 06:46:22;;;;;;;2.08;1.67;;;22.40;39.20;;;;;;5036633;28;20025;-73
2023/05/14 06:48:48;;;;;;;1.73;1.63;;;22.40;39.20;;;;;;5036435;28;20387;-72
2023/05/14 06:51:13;;;;;;;2.45;2.00;;;22.40;39.20;;;;;;5036413;28;20029;-72
2023/05/14 06:53:39;;;;;;;1.77;1.65;;;22.40;39.20;;;;;;5034708;28;20030;-73
2023/05/14 06:56:05;;;;;;;2.58;1.60;;;22.50;39.20;;;;;;5040446;28;20455;-73
2023/05/14 06:58:31;;;;;;;3.67;1.88;;;22.40;39.20;;;;;;5045672;28;20143;-72
2023/05/14 07:00:57;;;;;;;1.92;1.73;;;22.50;39.20;;;;;;5043570;28;20025;-71
2023/05/14 07:03:23;;;;;;;2.97;1.65;;;22.50;39.10;;;;;;5045060;28;20029;-71
2023/05/14 07:05:48;;;;;;;2.05;1.88;;;22.60;39.10;;;;;;5044930;28;20028;-72
2023/05/14 07:08:14;;;;;;;2.28;1.80;;;22.60;39.00;;;;;;5044063;28;20524;-71
2023/05/14 07:10:40;;;;;;;2.83;1.60;;;22.70;39.10;;;;;;5043517;28;20026;-70
2023/05/14 07:13:05;;;;;;;2.00;1.80;;;22.70;39.00;;;;;;5044508;28;20052;-71
2023/05/14 07:15:31;;;;;;;2.78;1.67;;;22.70;38.90;;;;;;5044933;28;20507;-71
2023/05/14 07:17:57;;;;;;;5.40;1.80;;;22.70;38.80;;;;;;5043590;28;20072;-71
2023/05/14 07:20:22;;;;;;;2.70;2.08;;;22.70;38.80;;;;;;5046130;28;20549;-71
2023/05/14 07:22:50;;;;;;;1.80;1.70;;;22.70;38.70;;;;;;5055492;28;20028;-70
2023/05/14 07:25:15;;;;;;;1.92;1.83;;;22.70;38.70;;;;;;5054485;28;20036;-72
2023/05/14 07:27:41;;;;;;;2.15;1.80;;;22.80;38.60;;;;;;5044498;28;20047;-72
2023/05/14 07:30:07;;;;;;;1.92;1.63;;;22.80;38.50;;;;;;5052491;28;20048;-71
2023/05/14 07:32:33;;;;;;;2.97;2.20;;;22.80;38.30;;;;;;5041746;28;20049;-71
2023/05/14 07:34:58;;;;;;;3.75;2.00;;;22.70;38.20;;;;;;5043772;28;20029;-72
2023/05/14 07:37:25;;;;;;;3.97;2.10;;;22.80;38.00;;;;;;5041875;28;20029;-70
2023/05/14 07:39:51;;;;;;;2.13;1.88;;;22.80;38.00;;;;;;5038725;28;20147;-70
2023/05/14 07:42:17;;;;;;;6.85;1.85;;;22.80;37.80;;;;;;5032300;28;20029;-72
2023/05/14 07:44:43;;;;;;;2.97;1.73;;;22.80;37.70;;;;;;5035953;28;20116;-71
2023/05/14 07:47:09;;;;;;;3.35;2.00;;;22.80;37.50;;;;;;5032197;28;20021;-71
2023/05/14 07:49:35;;;;;;;1.85;1.75;;;22.90;37.30;;;;;;5032150;28;20053;-72
2023/05/14 07:52:01;;;;;;;2.28;1.88;;;22.90;37.30;;;;;;5033681;28;20059;-72
2023/05/14 07:54:26;;;;;;;2.85;1.88;;;22.80;37.00;;;;;;5032437;28;20041;-72
2023/05/14 07:56:52;;;;;;;2.00;1.73;;;22.90;37.00;;;;;;5033811;28;20026;-72
2023/05/14 07:59:18;;;;;;;2.40;1.90;;;22.90;37.00;;;;;;5032931;28;20468;-70
2023/05/14 08:01:43;;;;;;;2.03;1.83;;;22.90;36.90;;;;;;5033853;28;20034;-69
2023/05/14 08:04:10;;;;;;;2.08;1.88;;;22.90;36.60;;;;;;5033748;28;20108;-73
2023/05/14 08:06:36;;;;;;;1.88;1.77;;;22.90;36.60;;;;;;5033554;28;20053;-71
2023/05/14 08:09:04;;;;;;;2.05;1.95;;;22.90;37.30;;;;;;5032214;28;20479;-72
2023/05/14 08:11:30;;;;;;;1.92;1.70;;;23.00;36.60;;;;;;5032710;28;20025;-72
2023/05/14 08:13:56;;;;;;;2.30;1.90;;;23.00;36.60;;;;;;5033949;28;20060;-71
2023/05/14 08:16:22;;;;;;;2.58;1.90;;;23.00;36.60;;;;;;5033318;28;20056;-72
2023/05/14 08:18:48;;;;;;;1.85;1.63;;;23.00;36.60;;;;;;5033568;28;20032;-72
2023/05/14 08:21:13;;;;;;;3.03;1.95;;;23.00;36.60;;;;;;5033664;28;20033;-72
2023/05/14 08:23:39;;;;;;;4.50;1.83;;;23.10;36.70;;;;;;5033508;28;20083;-72
2023/05/14 08:26:05;;;;;;;2.20;2.00;;;23.10;36.70;;;;;;5032330;28;20037;-72
2023/05/14 08:28:31;;;;;;;2.10;1.95;;;23.20;36.60;;;;;;5033360;28;20036;-72
2023/05/14 08:30:56;;;;;;;2.17;1.98;;;23.20;36.50;;;;;;4993345;28;1151178;-72
2023/05/14 08:33:22;;;;;;;2.13;1.92;;;23.20;36.40;;;;;;5034393;28;20159;-72
2023/05/14 08:35:51;;;;;;;1.95;1.85;;;23.20;36.30;;;;;;5033727;28;20163;-72
2023/05/14 08:38:17;;;;;;;2.10;1.95;;;23.20;36.30;;;;;;5033205;28;20025;-72
2023/05/14 08:40:47;;;;;;;2.55;2.10;;;23.20;36.30;;;;;;5044965;28;20036;-71
2023/05/14 08:43:18;;;;;;;1.80;1.70;;;23.20;36.40;;;;;;5053313;28;20040;-72
2023/05/14 08:45:45;;;;;;;3.90;2.25;;;23.30;36.50;;;;;;5054030;28;20025;-72
2023/05/14 08:48:15;;;;;;;2.08;1.88;;;23.20;36.40;;;;;;5054038;28;20132;-72
2023/05/14 08:50:42;;;;;;;2.38;1.95;;;23.30;36.30;;;;;;5054188;28;20029;-72
2023/05/14 08:53:08;;;;;;;3.03;2.17;;;23.30;36.20;;;;;;5053728;28;20021;-72
2023/05/14 08:55:34;;;;;;;2.97;1.80;;;23.30;36.00;;;;;;5052870;28;20040;-72
2023/05/14 08:58:00;;;;;;;4.03;2.22;;;23.30;36.00;;;;;;5052786;28;20029;-72
2023/05/14 09:00:25;;;;;;;2.33;1.98;;;23.40;36.70;;;;;;5053887;28;20037;-72
2023/05/14 09:02:51;;;;;;;2.38;2.10;;;23.40;36.10;;;;;;5052293;28;20048;-71
2023/05/14 09:05:18;;;;;;;2.20;1.90;;;23.40;36.00;;;;;;5053718;28;20029;-72
2023/05/14 09:07:44;;;;;;;2.75;2.10;;;23.40;36.00;;;;;;5053566;28;20053;-72
2023/05/14 09:10:10;;;;;;;3.15;2.10;;;23.50;36.00;;;;;;5053825;28;20059;-72
2023/05/14 09:12:36;;;;;;;2.58;2.10;;;23.40;35.90;;;;;;5053607;28;20378;-72
2023/05/14 09:15:02;;;;;;;2.28;2.08;;;23.50;35.90;;;;;;5053350;28;20028;-72
2023/05/14 09:17:27;;;;;;;2.13;1.92;;;23.50;35.80;;;;;;5053393;28;20060;-71
2023/05/14 09:19:53;;;;;;;2.90;2.20;;;23.50;35.70;;;;;;5053481;28;20071;-72
2023/05/14 09:22:19;;;;;;;2.53;2.30;;;23.50;35.60;;;;;;5053579;28;20033;-72
2023/05/14 09:24:46;;;;;;;3.97;2.53;;;23.60;35.60;;;;;;5052245;28;20033;-72
2023/05/14 09:27:19;;;;;;;2.10;1.90;;;23.50;35.60;;;;;;5052979;28;20028;-72
2023/05/14 09:29:44;;;;;;;2.67;2.28;;;23.60;35.50;;;;;;5052965;28;20033;-72
2023/05/14 09:32:10;;;;;;;2.70;2.40;;;23.60;35.60;;;;;;5053498;28;20518;-72
2023/05/14 09:34:38;;;;;;;2.83;2.20;;;23.60;35.60;;;;;;5053446;28;20025;-72
2023/05/14 09:37:08;;;;;;;4.43;2.80;;;23.60;35.60;;;;;;5035809;28;20035;-72
2023/05/14 09:39:37;;;;;;;3.25;2.08;;;23.70;35.70;;;;;;5051214;28;20029;-72
2023/05/14 09:42:04;;;;;;;2.50;2.30;;;23.70;35.60;;;;;;5052805;28;20033;-72
2023/05/14 09:44:30;;;;;;;2.53;2.33;;;23.70;35.60;;;;;;5052978;28;20059;-72
2023/05/14 09:46:56;;;;;;;3.83;2.42;;;23.70;35.50;;;;;;5053107;28;20367;-72
2023/05/14 09:49:22;;;;;;;2.33;2.13;;;23.70;35.50;;;;;;5052854;28;20033;-72
2023/05/14 09:51:49;;;;;;;3.85;1.95;;;23.80;35.50;;;;;;5052978;28;20116;-71
2023/05/14 09:54:14;;;;;;;2.30;2.10;;;23.80;35.50;;;;;;5052713;28;20035;-71
2023/05/14 09:56:43;;;;;;;2.45;1.98;;;23.80;35.30;;;;;;5052939;28;20025;-71
2023/05/14 09:59:08;;;;;;;2.55;2.00;;;23.90;35.30;;;;;;5052080;28;20025;-72
2023/05/14 10:01:36;;;;;;;2.22;2.10;;;23.90;35.40;;;;;;5053230;28;20037;-72
2023/05/14 10:04:06;;;;;;;2.53;2.10;;;23.90;35.30;;;;;;5052831;28;20100;-72
2023/05/14 10:06:38;;;;;;;4.30;2.20;;;23.90;35.20;;;;;;5052504;28;20059;-72
2023/05/14 10:09:12;;;;;;;2.60;2.40;;;24.00;35.30;;;;;;5052074;28;20044;-72
2023/05/14 10:11:41;;;;;;;2.60;2.40;;;24.00;35.20;;;;;;5052436;28;20402;-72
2023/05/14 10:14:17;;;;;;;2.67;1.98;;;24.00;35.20;;;;;;5051426;28;20073;-72
2023/05/14 10:16:48;;;;;;;4.32;2.38;;;24.10;35.10;;;;;;5052639;28;20503;-71
2023/05/14 10:19:16;;;;;;;2.95;2.30;;;24.10;35.00;;;;;;5051899;28;20040;-72
2023/05/14 10:21:44;;;;;;;3.05;2.25;;;24.10;35.00;;;;;;5034693;28;20086;-72
2023/05/14 10:24:11;;;;;;;2.40;2.20;;;24.20;35.00;;;;;;5052328;28;20017;-72
2023/05/14 10:26:39;;;;;;;1.95;1.85;;;24.20;35.00;;;;;;5052416;28;20456;-72
2023/05/14 10:29:05;;;;;;;2.70;1.90;;;24.20;34.90;;;;;;5052378;28;20070;-72
2023/05/14 10:31:54;;;;;;;2.00;1.88;;;24.30;34.80;;;;;;5050523;28;20080;-72
2023/05/14 10:34:44;;;;;;;3.35;2.00;;;24.30;34.60;;;;;;5052572;28;20479;-71
2023/05/14 10:37:17;;;;;;;2.45;1.98;;;24.40;34.60;;;;;;5048702;28;20029;-73
2023/05/14 10:39:43;;;;;;;3.28;1.98;;;24.40;34.60;;;;;;5041109;28;20064;-73
2023/05/14 10:42:39;;;;;;;2.38;2.05;;;24.50;34.60;;;;;;5034338;28;20440;-72
2023/05/14 10:45:07;;;;;;;2.17;2.00;;;24.50;34.30;;;;;;5040362;28;20500;-72
2023/05/14 10:47:38;;;;;;;2.33;2.10;;;24.60;34.40;;;;;;5040528;28;20073;-72
2023/05/14 10:50:06;;;;;;;2.50;2.13;;;24.60;34.30;;;;;;5039831;28;20443;-72
2023/05/14 10:52:33;;;;;;;2.92;2.20;;;24.70;34.30;;;;;;5040693;28;20025;-71
2023/05/14 10:55:02;;;;;;;2.10;1.90;;;24.70;34.10;;;;;;5040996;28;20048;-72
2023/05/14 10:57:29;;;;;;;2.15;1.48;;;24.70;34.00;;;;;;5038896;28;20033;-71
2023/05/14 10:59:57;;;;;;;2.47;2.13;;;24.80;33.90;;;;;;5031611;28;20478;-71
2023/05/14 11:02:30;;;;;;;2.08;1.80;;;24.90;33.80;;;;;;5031049;28;20018;-72
2023/05/14 11:05:04;;;;;;;3.30;1.92;;;24.90;33.50;;;;;;5030001;28;20135;-72
2023/05/14 11:07:31;;;;;;;;;;;25.00;33.50;;;;;;5030897;28;20120;-72
2023/05/14 11:10:07;;;;;;;2.28;1.88;;;25.00;33.00;;;;;;5031901;28;19905;-72
2023/05/14 11:12:34;;;;;;;3.22;1.90;;;25.00;33.40;;;;;;5031931;28;20033;-72
2023/05/14 11:15:01;;;;;;;3.80;2.20;;;25.10;33.40;;;;;;5031665;28;20107;-71
2023/05/14 11:17:28;;;;;;;1.90;1.80;;;25.10;33.40;;;;;;5045065;28;20103;-70
2023/05/14 11:19:55;;;;;;;2.75;1.98;;;25.20;33.40;;;;;;5051819;28;20025;-70
2023/05/14 11:22:21;;;;;;;9.50;2.40;;;25.30;33.40;;;;;;5053687;28;20057;-70
2023/05/14 11:24:48;;;;;;;4.90;2.00;;;25.40;33.60;;;;;;5055135;28;20040;-70
2023/05/14 11:27:14;;;;;;;3.97;1.90;;;25.50;33.70;;;;;;5054157;28;20043;-70
2023/05/14 11:29:47;;;;;;;3.28;1.90;;;25.50;33.70;;;;;;5053381;28;20394;-70
2023/05/14 11:32:15;;;;;;;5.47;2.10;;;25.50;33.80;;;;;;5036441;28;20056;-70
2023/05/14 11:34:45;;;;;;;3.13;1.90;;;25.50;33.80;;;;;;5034240;28;20613;-72
2023/05/14 11:37:13;;;;;;;3.92;1.90;;;25.60;34.50;;;;;;5049940;28;20037;-72
2023/05/14 11:39:44;;;;;;;1.90;1.67;;;25.60;33.80;;;;;;5055099;28;20039;-71
2023/05/14 11:42:13;;;;;;;3.35;1.77;;;25.60;33.60;;;;;;5051232;28;20142;-71
2023/05/14 11:44:39;;;;;;;4.05;1.80;;;25.60;34.20;;;;;;5044045;28;20049;-73
2023/05/14 11:47:05;;;;;;;3.47;1.48;;;25.60;33.40;;;;;;5055185;28;20032;-72
2023/05/14 11:49:34;;;;;;;1.73;1.50;;;25.50;33.30;;;;;;5055135;28;20471;-71
2023/05/14 11:52:05;;;;;;;2.22;1.55;;;25.50;33.30;;;;;;5054950;28;20732;-72
2023/05/14 11:54:32;;;;;;;1.77;1.52;;;25.50;33.30;;;;;;5055649;28;20111;-70
2023/05/14 11:57:01;;;;;;;1.90;1.58;;;25.40;33.20;;;;;;5054425;28;20029;-71
2023/05/14 11:59:30;;;;;;;1.60;1.48;;;25.40;33.10;;;;;;5054972;28;20150;-71
2023/05/14 12:01:57;;;;;;;1.55;1.40;;;25.40;33.00;;;;;;5053727;28;20029;-71
2023/05/14 12:04:22;;;;;;;2.00;1.30;;;25.30;32.90;;;;;;5053119;28;20116;-72
2023/05/14 12:06:49;;;;;;;1.40;1.30;;;25.30;32.90;;;;;;5055008;28;20121;-70
2023/05/14 12:09:19;;;;;;;1.80;1.65;;;25.30;32.80;;;;;;5054428;28;20112;-71
2023/05/14 12:11:48;;;;;;;1.92;1.40;;;25.20;32.90;;;;;;5032441;28;20113;-72
2023/05/14 12:14:16;;;;;;;1.75;1.65;;;25.20;32.90;;;;;;5032397;28;20030;-72
2023/05/14 12:16:43;;;;;;;3.53;1.70;;;25.10;32.90;;;;;;5032951;28;20026;-71
2023/05/14 12:19:10;;;;;;;2.40;1.60;;;25.10;33.00;;;;;;5033384;28;20554;-70
2023/05/14 12:21:36;;;;;;;1.55;1.45;;;25.00;32.90;;;;;;5034532;28;20491;-71
2023/05/14 12:24:03;;;;;;;2.05;1.70;;;25.00;32.90;;;;;;5033215;28;20109;-71
2023/05/14 12:26:32;;;;;;;1.45;1.35;;;25.00;32.90;;;;;;5033492;28;20487;-71
2023/05/14 12:29:02;;;;;;;1.75;1.45;;;24.90;32.70;;;;;;5034704;28;20032;-71
2023/05/14 12:31:29;;;;;;;1.88;1.60;;;25.00;32.80;;;;;;5034370;28;20053;-71
2023/05/14 12:33:55;;;;;;;1.77;1.40;;;25.00;32.70;;;;;;5031753;28;20056;-71
2023/05/14 12:36:20;;;;;;;1.52;1.30;;;25.00;32.60;;;;;;5034584;28;20029;-72
2023/05/14 12:38:46;;;;;;;1.33;1.23;;;25.00;32.50;;;;;;5034385;28;20029;-71
2023/05/14 12:41:12;;;;;;;2.00;1.40;;;25.00;32.50;;;;;;5049027;28;20143;-71
2023/05/14 12:43:42;;;;;;;1.50;1.40;;;25.00;32.50;;;;;;5053758;28;20514;-72
2023/05/14 12:46:07;;;;;;;1.42;1.30;;;25.10;32.50;;;;;;5054302;28;20079;-71